Time;durP1;ratioP1;P1;durP2;ratioP2;P2;SDS_P1;SDS_P2;PMS_P1;PMS_P2;Temp;Humidity;BMP_temperature;BMP_pressure;BME280_temperature;BME280_humidity;BME280_pressure;Samples;Min_cycle;Max_cycle;Signal;HPM_P1;HPM_P2
2023/04/02 00:01:53;;;;;;;6.72;5.05;;;8.40;99.90;;;;;;5032683;28;20479;-76
2023/04/02 00:04:21;;;;;;;5.70;5.20;;;8.40;99.90;;;;;;5033485;28;20478;-76
2023/04/02 00:07:29;;;;;;;6.90;6.20;;;8.30;99.90;;;;;;5033902;28;20410;-75
2023/04/02 00:09:56;;;;;;;7.10;6.40;;;8.30;99.90;;;;;;5035021;28;20398;-75
2023/04/02 00:12:22;;;;;;;6.40;5.50;;;8.30;99.90;;;;;;5033905;28;20796;-75
2023/04/02 00:14:52;;;;;;;7.17;6.30;;;8.30;99.90;;;;;;5036574;28;20381;-75
2023/04/02 00:17:20;;;;;;;6.97;6.28;;;8.20;99.90;;;;;;5045380;28;20453;-74
2023/04/02 00:19:52;;;;;;;6.55;5.95;;;8.20;99.90;;;;;;5044485;28;20397;-75
2023/04/02 00:22:25;;;;;;;7.37;6.40;;;8.10;99.90;;;;;;5041826;28;20606;-75
2023/04/02 00:24:53;;;;;;;6.47;5.87;;;8.10;99.90;;;;;;5042459;28;20405;-75
2023/04/02 00:27:19;;;;;;;5.10;4.60;;;8.10;99.90;;;;;;5032736;28;20414;-75
2023/04/02 00:29:54;;;;;;;5.40;4.90;;;8.10;99.90;;;;;;5032877;28;20390;-75
2023/04/02 00:32:27;;;;;;;6.15;5.65;;;8.00;99.90;;;;;;5032553;28;20402;-75
2023/04/02 00:34:54;;;;;;;6.22;5.63;;;8.10;99.90;;;;;;5031802;28;20425;-75
2023/04/02 00:37:26;;;;;;;6.05;5.45;;;8.10;99.90;;;;;;5033637;28;20403;-75
2023/04/02 00:39:57;;;;;;;6.05;5.45;;;8.10;99.90;;;;;;5033195;28;20444;-75
2023/04/02 00:42:24;;;;;;;5.60;5.10;;;8.10;99.90;;;;;;5032400;28;20424;-75
2023/04/02 00:44:50;;;;;;;7.95;5.65;;;8.10;99.90;;;;;;5031364;28;20733;-75
2023/04/02 00:47:26;;;;;;;5.53;4.43;;;8.10;99.90;;;;;;5032414;28;20918;-75
2023/04/02 00:50:14;;;;;;;5.10;4.70;;;8.10;99.90;;;;;;5031324;28;20406;-75
2023/04/02 00:52:44;;;;;;;5.88;5.38;;;8.10;99.90;;;;;;5030893;28;20432;-75
2023/04/02 00:55:33;;;;;;;4.90;4.50;;;8.10;99.90;;;;;;5032319;28;20384;-75
2023/04/02 00:58:00;;;;;;;6.75;5.30;;;8.10;98.80;;;;;;5032082;28;20387;-75
2023/04/02 01:00:31;;;;;;;5.80;5.20;;;8.00;99.50;;;;;;5031001;28;20371;-75
2023/04/02 01:03:15;;;;;;;5.10;4.60;;;8.00;99.40;;;;;;5031761;28;20482;-75
2023/04/02 01:05:47;;;;;;;6.57;5.90;;;7.90;98.40;;;;;;5031920;28;20442;-75
2023/04/02 01:08:40;;;;;;;6.00;5.40;;;7.90;99.90;;;;;;5032002;28;20397;-75
2023/04/02 01:11:27;;;;;;;6.03;5.43;;;7.80;99.90;;;;;;5011083;28;20461;-75
2023/04/02 01:14:37;;;;;;;7.55;5.57;;;7.80;99.90;;;;;;5031994;28;20388;-75
2023/04/02 01:17:17;;;;;;;5.68;5.18;;;7.80;99.90;;;;;;5029953;28;20520;-75
2023/04/02 01:20:16;;;;;;;5.27;4.87;;;7.80;99.90;;;;;;5030221;28;20437;-74
2023/04/02 01:23:06;;;;;;;6.00;5.40;;;7.90;99.90;;;;;;5031805;28;20394;-74
2023/04/02 01:25:47;;;;;;;7.28;5.78;;;7.80;99.90;;;;;;5031628;28;20387;-75
2023/04/02 01:28:26;;;;;;;5.55;5.05;;;7.90;99.90;;;;;;5031582;28;20399;-76
2023/04/02 01:30:57;;;;;;;6.63;5.93;;;7.90;99.20;;;;;;5031458;28;20799;-75
2023/04/02 01:33:28;;;;;;;6.22;5.63;;;7.80;97.30;;;;;;5031488;28;20440;-75
2023/04/02 01:36:11;;;;;;;6.47;5.88;;;7.70;96.40;;;;;;5031471;28;20841;-75
2023/04/02 01:39:04;;;;;;;6.60;5.90;;;7.70;96.90;;;;;;5031404;28;20382;-75
2023/04/02 01:41:39;;;;;;;7.45;6.68;;;7.70;96.40;;;;;;5031060;28;20406;-75
2023/04/02 01:44:10;;;;;;;7.60;6.72;;;7.70;96.50;;;;;;5031387;28;20383;-75
2023/04/02 01:46:40;;;;;;;8.70;6.32;;;7.80;97.40;;;;;;5030244;28;20410;-76
2023/04/02 01:49:13;;;;;;;8.30;7.40;;;7.70;96.20;;;;;;5031505;28;20863;-75
2023/04/02 01:51:42;;;;;;;10.00;7.75;;;7.60;98.10;;;;;;5031147;28;20831;-75
2023/04/02 01:54:09;;;;;;;10.32;7.85;;;7.60;97.80;;;;;;5031043;28;20402;-75
2023/04/02 01:56:34;;;;;;;9.15;8.25;;;7.60;97.90;;;;;;5034566;28;20391;-75
2023/04/02 01:59:04;;;;;;;12.23;8.67;;;7.60;97.40;;;;;;5036095;28;20379;-75
2023/04/02 02:01:40;;;;;;;10.68;8.90;;;7.60;95.10;;;;;;5039105;28;20391;-73
2023/04/02 02:04:12;;;;;;;9.38;8.38;;;7.60;94.60;;;;;;5035141;28;20387;-75
2023/04/02 02:06:38;;;;;;;9.82;8.73;;;7.60;94.40;;;;;;5031124;28;20406;-75
2023/04/02 02:09:07;;;;;;;10.17;8.57;;;7.60;94.10;;;;;;5031130;28;20890;-75
2023/04/02 02:11:35;;;;;;;8.88;7.97;;;7.70;95.40;;;;;;5031018;28;20437;-75
2023/04/02 02:14:10;;;;;;;7.95;7.20;;;7.70;94.10;;;;;;5032577;28;20387;-75
2023/04/02 02:16:40;;;;;;;6.97;6.20;;;7.70;93.40;;;;;;5049722;28;20406;-75
2023/04/02 02:19:12;;;;;;;8.10;7.30;;;7.60;89.70;;;;;;5042684;28;20402;-75
2023/04/02 02:21:40;;;;;;;9.02;6.60;;;7.60;91.00;;;;;;5030852;28;20887;-75
2023/04/02 02:24:27;;;;;;;8.15;6.80;;;7.60;90.90;;;;;;5030624;28;20926;-76
2023/04/02 02:27:22;;;;;;;8.02;6.60;;;7.50;90.20;;;;;;5030465;28;20402;-76
2023/04/02 02:29:53;;;;;;;7.90;7.03;;;7.60;90.70;;;;;;5030534;28;20868;-75
2023/04/02 02:32:22;;;;;;;6.70;6.10;;;7.50;88.10;;;;;;5030247;28;20932;-74
2023/04/02 02:34:53;;;;;;;7.68;6.88;;;7.50;87.30;;;;;;5030726;28;20395;-74
2023/04/02 02:37:25;;;;;;;7.10;6.40;;;7.50;89.50;;;;;;5030504;28;20391;-75
2023/04/02 02:39:57;;;;;;;8.50;6.13;;;7.50;88.50;;;;;;5029257;28;20397;-75
2023/04/02 02:42:26;;;;;;;6.75;5.85;;;7.50;88.60;;;;;;5030360;28;20417;-74
2023/04/02 02:44:54;;;;;;;7.85;6.40;;;7.50;86.80;;;;;;5030499;28;20418;-74
2023/04/02 02:47:32;;;;;;;8.75;7.03;;;7.40;87.40;;;;;;5030444;28;20406;-74
2023/04/02 02:50:06;;;;;;;8.50;7.50;;;7.40;87.90;;;;;;5030400;28;20394;-74
2023/04/02 02:52:35;;;;;;;9.93;7.70;;;7.40;89.70;;;;;;5030751;28;20781;-74
2023/04/02 02:55:03;;;;;;;8.60;7.70;;;7.50;90.60;;;;;;5031458;28;20387;-74
2023/04/02 02:57:34;;;;;;;7.67;6.87;;;7.50;89.50;;;;;;5033199;28;20768;-74
2023/04/02 03:00:04;;;;;;;7.10;6.40;;;7.50;85.70;;;;;;5035224;28;20514;-74
2023/04/02 03:02:30;;;;;;;6.70;5.88;;;7.50;86.70;;;;;;5035457;28;20383;-74
2023/04/02 03:04:57;;;;;;;7.53;6.13;;;7.40;84.10;;;;;;5034031;28;20390;-74
2023/04/02 03:07:26;;;;;;;8.43;6.30;;;7.40;87.20;;;;;;5040500;28;20485;-74
2023/04/02 03:09:57;;;;;;;5.80;5.28;;;7.40;89.00;;;;;;5037722;28;20387;-74
2023/04/02 03:12:49;;;;;;;7.13;6.03;;;7.30;88.40;;;;;;5043334;28;20385;-74
2023/04/02 03:15:40;;;;;;;7.22;5.30;;;7.30;91.90;;;;;;5043588;28;20410;-75
2023/04/02 03:18:31;;;;;;;6.33;5.73;;;7.20;90.00;;;;;;5046988;28;20391;-73
2023/04/02 03:21:04;;;;;;;7.40;6.70;;;7.10;92.80;;;;;;5069086;22;20436;-71
2023/04/02 03:23:37;;;;;;;10.73;6.40;;;7.10;95.20;;;;;;5056432;28;20488;-71
2023/04/02 03:26:21;;;;;;;7.60;6.15;;;7.10;93.90;;;;;;5055659;28;20716;-71
2023/04/02 03:29:07;;;;;;;8.52;7.10;;;7.10;92.90;;;;;;5055736;28;20723;-71
2023/04/02 03:31:41;;;;;;;8.55;7.65;;;7.00;93.70;;;;;;5056452;28;20414;-71
2023/04/02 03:34:24;;;;;;;9.70;8.70;;;7.00;96.20;;;;;;5055279;28;20747;-70
2023/04/02 03:37:06;;;;;;;10.93;8.70;;;6.90;96.20;;;;;;5054433;28;20412;-70
2023/04/02 03:39:38;;;;;;;14.02;9.57;;;6.90;96.00;;;;;;5054012;28;20396;-71
2023/04/02 03:42:13;;;;;;;12.07;10.77;;;7.00;95.10;;;;;;5054186;28;21022;-71
2023/04/02 03:44:46;;;;;;;11.60;10.00;;;7.00;93.30;;;;;;5054625;28;20404;-70
2023/04/02 03:47:29;;;;;;;10.13;8.70;;;7.00;91.50;;;;;;5053934;28;20408;-71
2023/04/02 03:50:05;;;;;;;11.55;9.90;;;6.90;89.30;;;;;;5052699;28;20909;-71
2023/04/02 03:52:35;;;;;;;10.38;9.30;;;6.90;90.70;;;;;;5053452;28;20393;-70
2023/04/02 03:55:08;;;;;;;10.52;8.88;;;7.00;89.10;;;;;;5055481;28;20385;-70
2023/04/02 03:57:45;;;;;;;9.85;8.48;;;7.00;88.70;;;;;;5054413;28;20416;-70
2023/04/02 04:00:22;;;;;;;9.48;8.48;;;6.90;89.30;;;;;;5055479;28;20393;-72
2023/04/02 04:02:56;;;;;;;10.95;9.05;;;7.00;88.30;;;;;;5056335;28;20417;-71
2023/04/02 04:05:34;;;;;;;10.70;9.55;;;7.00;87.70;;;;;;5057153;28;20448;-71
2023/04/02 04:08:04;;;;;;;11.00;9.32;;;7.00;86.70;;;;;;5056015;28;20416;-72
2023/04/02 04:10:31;;;;;;;12.65;9.95;;;7.00;86.70;;;;;;5056617;28;20480;-72
2023/04/02 04:13:12;;;;;;;11.32;9.40;;;7.00;86.70;;;;;;5056969;28;20392;-71
2023/04/02 04:16:03;;;;;;;10.70;9.60;;;7.00;85.50;;;;;;5057393;28;20880;-70
2023/04/02 04:18:48;;;;;;;10.38;9.27;;;7.00;85.30;;;;;;5054222;28;20408;-71
2023/04/02 04:21:35;;;;;;;10.20;9.10;;;7.00;84.60;;;;;;5058967;28;20389;-70
2023/04/02 04:24:05;;;;;;;11.07;9.10;;;6.90;85.00;;;;;;5057049;28;20389;-71
2023/04/02 04:26:38;;;;;;;9.30;8.40;;;7.00;84.30;;;;;;5053400;28;20397;-70
2023/04/02 04:29:16;;;;;;;9.25;7.75;;;6.90;82.10;;;;;;5053031;28;20380;-70
2023/04/02 04:31:48;;;;;;;8.85;7.95;;;6.80;85.40;;;;;;5052824;28;20865;-70
2023/04/02 04:34:22;;;;;;;8.05;7.25;;;6.80;87.60;;;;;;5052819;28;20869;-70
2023/04/02 04:37:00;;;;;;;8.27;7.47;;;6.80;89.40;;;;;;5052953;28;20385;-71
2023/04/02 04:39:49;;;;;;;8.45;7.57;;;6.80;88.50;;;;;;5052913;28;20426;-71
2023/04/02 04:42:24;;;;;;;9.30;8.30;;;6.80;87.10;;;;;;5046084;28;20454;-71
2023/04/02 04:45:07;;;;;;;10.48;7.90;;;6.70;87.50;;;;;;5052975;28;20387;-71
2023/04/02 04:47:42;;;;;;;10.43;8.95;;;6.70;86.50;;;;;;5052535;28;20442;-70
2023/04/02 04:50:16;;;;;;;11.43;9.00;;;6.60;85.50;;;;;;5052603;28;20388;-72
2023/04/02 04:52:43;;;;;;;12.98;9.25;;;6.50;85.40;;;;;;5051532;28;20428;-71
2023/04/02 04:55:25;;;;;;;13.75;8.27;;;6.40;87.20;;;;;;5051697;28;20515;-71
2023/04/02 04:57:57;;;;;;;12.27;8.77;;;6.40;86.40;;;;;;5052613;28;20381;-70
2023/04/02 05:00:31;;;;;;;13.30;8.75;;;6.40;87.90;;;;;;5052833;28;20457;-70
2023/04/02 05:03:10;;;;;;;12.30;8.55;;;6.30;86.40;;;;;;5053243;28;20395;-71
2023/04/02 05:05:39;;;;;;;10.93;8.00;;;6.40;85.90;;;;;;5052574;28;20413;-70
2023/04/02 05:08:15;;;;;;;16.50;9.45;;;6.30;85.10;;;;;;5052126;28;20393;-71
2023/04/02 05:10:54;;;;;;;11.40;8.20;;;6.20;86.20;;;;;;5052296;28;20373;-71
2023/04/02 05:13:49;;;;;;;18.50;9.45;;;6.20;85.80;;;;;;5052137;28;20917;-70
2023/04/02 05:16:30;;;;;;;15.00;9.73;;;6.10;88.20;;;;;;5052028;28;20397;-71
2023/04/02 05:19:06;;;;;;;14.10;10.10;;;6.10;88.40;;;;;;5053040;28;20480;-70
2023/04/02 05:21:36;;;;;;;14.07;9.65;;;6.20;88.40;;;;;;5053475;28;20381;-71
2023/04/02 05:24:40;;;;;;;12.95;9.32;;;6.10;86.70;;;;;;5054373;28;20737;-71
2023/04/02 05:27:35;;;;;;;15.00;10.25;;;6.10;85.80;;;;;;5053579;28;20401;-71
2023/04/02 05:30:13;;;;;;;14.30;9.57;;;6.10;86.80;;;;;;5055309;28;20776;-71
2023/04/02 05:32:48;;;;;;;16.40;10.43;;;6.10;85.20;;;;;;5054880;28;20386;-69
2023/04/02 05:35:16;;;;;;;12.05;8.82;;;6.10;87.80;;;;;;5053777;28;20453;-70
2023/04/02 05:37:42;;;;;;;15.13;9.40;;;6.10;84.80;;;;;;5053252;28;20388;-70
2023/04/02 05:40:39;;;;;;;21.88;11.40;;;6.10;84.30;;;;;;5051501;28;20421;-71
2023/04/02 05:43:09;;;;;;;16.85;10.30;;;6.10;86.60;;;;;;5052027;28;20405;-69
2023/04/02 05:45:38;;;;;;;15.05;10.18;;;6.10;85.50;;;;;;5055763;28;20381;-71
2023/04/02 05:48:14;;;;;;;16.42;10.90;;;6.00;85.00;;;;;;5060352;28;20405;-71
2023/04/02 05:50:44;;;;;;;23.98;11.25;;;6.00;84.80;;;;;;5067439;28;20468;-71
2023/04/02 05:53:15;;;;;;;17.98;11.32;;;6.00;84.90;;;;;;5069767;28;20449;-72
2023/04/02 05:55:52;;;;;;;22.85;12.35;;;6.00;85.60;;;;;;5063142;28;20434;-70
2023/04/02 05:58:34;;;;;;;20.15;13.93;;;6.00;84.90;;;;;;5052390;28;20384;-70
2023/04/02 06:01:23;;;;;;;24.38;13.35;;;6.00;87.00;;;;;;5051081;28;20385;-71
2023/04/02 06:04:06;;;;;;;17.85;13.23;;;6.00;87.40;;;;;;5040897;28;20890;-70
2023/04/02 06:06:48;;;;;;;19.48;12.63;;;6.20;87.40;;;;;;5051173;28;20444;-71
2023/04/02 06:09:49;;;;;;;21.33;13.23;;;6.20;83.70;;;;;;5050972;28;20473;-71
2023/04/02 06:12:22;;;;;;;22.02;14.73;;;6.10;82.30;;;;;;5050945;28;20467;-70
2023/04/02 06:14:48;;;;;;;21.63;13.93;;;6.20;85.80;;;;;;5051221;28;20432;-70
2023/04/02 06:17:15;;;;;;;25.30;13.70;;;6.20;83.10;;;;;;5051377;28;20405;-72
2023/04/02 06:19:41;;;;;;;28.13;14.77;;;6.00;79.60;;;;;;5050040;28;20405;-70
2023/04/02 06:22:16;;;;;;;22.23;14.02;;;6.00;82.10;;;;;;5051302;28;20385;-71
2023/04/02 06:24:45;;;;;;;24.75;14.23;;;6.00;82.20;;;;;;5051260;28;20380;-71
2023/04/02 06:27:15;;;;;;;24.23;15.00;;;6.00;81.30;;;;;;5066548;28;20428;-69
2023/04/02 06:29:44;;;;;;;27.45;15.43;;;6.00;83.50;;;;;;5051018;28;20473;-70
2023/04/02 06:32:11;;;;;;;23.50;14.80;;;6.10;80.90;;;;;;5050341;28;20400;-70
2023/04/02 06:34:41;;;;;;;21.58;13.50;;;6.00;79.90;;;;;;5052358;28;20892;-71
2023/04/02 06:37:26;;;;;;;24.30;13.40;;;6.00;80.10;;;;;;5051355;28;20439;-70
2023/04/02 06:39:51;;;;;;;23.67;12.63;;;6.00;78.30;;;;;;5051150;28;20385;-71
2023/04/02 06:42:21;;;;;;;21.27;12.47;;;5.90;79.60;;;;;;5050866;28;20381;-70
2023/04/02 06:44:47;;;;;;;24.00;13.10;;;5.90;79.50;;;;;;5050776;28;20386;-70
2023/04/02 06:47:30;;;;;;;22.42;13.15;;;5.90;79.60;;;;;;5050717;28;20413;-70
2023/04/02 06:50:00;;;;;;;19.67;11.40;;;5.80;77.90;;;;;;5050637;28;20409;-70
2023/04/02 06:52:42;;;;;;;24.90;14.43;;;5.70;77.20;;;;;;5050372;28;20382;-72
2023/04/02 06:55:27;;;;;;;24.00;14.15;;;5.80;79.70;;;;;;5050591;28;20795;-70
2023/04/02 06:57:53;;;;;;;22.30;11.82;;;5.80;79.50;;;;;;5050603;28;20439;-71
2023/04/02 07:00:38;;;;;;;20.20;13.10;;;5.80;78.20;;;;;;5050642;28;20389;-71
2023/04/02 07:03:13;;;;;;;25.35;13.40;;;5.70;78.50;;;;;;5050427;28;20428;-70
2023/04/02 07:05:39;;;;;;;20.83;13.35;;;5.90;76.70;;;;;;5066248;28;20420;-71
2023/04/02 07:08:05;;;;;;;19.60;12.63;;;5.90;76.10;;;;;;5050749;28;20381;-70
2023/04/02 07:10:30;;;;;;;22.00;12.60;;;5.90;74.60;;;;;;5050578;28;21192;-71
2023/04/02 07:12:56;;;;;;;19.05;12.10;;;6.00;75.60;;;;;;5050241;28;20373;-71
2023/04/02 07:15:23;;;;;;;23.05;12.88;;;6.00;73.90;;;;;;5048780;28;20424;-71
2023/04/02 07:17:49;;;;;;;20.20;12.70;;;6.00;74.40;;;;;;5050103;28;20396;-71
2023/04/02 07:20:25;;;;;;;24.70;12.52;;;6.10;73.20;;;;;;5049899;28;20893;-71
2023/04/02 07:22:50;;;;;;;17.55;10.95;;;6.20;71.00;;;;;;5050143;28;20389;-70
2023/04/02 07:25:16;;;;;;;19.83;11.90;;;6.20;69.60;;;;;;5050210;28;20386;-70
2023/04/02 07:27:41;;;;;;;24.80;11.70;;;6.20;70.20;;;;;;5050331;28;20413;-70
2023/04/02 07:30:07;;;;;;;19.63;11.30;;;6.30;71.40;;;;;;5050094;28;20876;-71
2023/04/02 07:32:33;;;;;;;16.58;11.32;;;6.40;70.50;;;;;;5050439;28;20393;-70
2023/04/02 07:34:59;;;;;;;19.03;11.90;;;6.50;68.80;;;;;;5049502;28;20408;-70
2023/04/02 07:37:25;;;;;;;16.37;11.17;;;6.50;70.40;;;;;;5049526;28;20476;-70
2023/04/02 07:39:51;;;;;;;19.40;10.77;;;6.60;66.90;;;;;;5050396;28;20765;-71
2023/04/02 07:42:16;;;;;;;17.67;10.63;;;6.60;65.30;;;;;;5050163;28;20481;-71
2023/04/02 07:44:42;;;;;;;17.37;11.07;;;6.50;66.90;;;;;;5053788;28;20480;-72
2023/04/02 07:47:09;;;;;;;14.43;9.77;;;6.50;68.30;;;;;;5053839;28;20504;-70
2023/04/02 07:49:34;;;;;;;20.48;11.02;;;6.40;66.90;;;;;;5054538;28;20448;-71
2023/04/02 07:52:00;;;;;;;19.07;11.67;;;6.40;66.20;;;;;;5054106;28;20504;-71
2023/04/02 07:54:26;;;;;;;20.50;13.10;;;6.40;68.40;;;;;;5054209;28;20865;-71
2023/04/02 07:56:51;;;;;;;20.07;12.50;;;6.50;68.80;;;;;;5055326;28;20378;-71
2023/04/02 07:59:17;;;;;;;22.20;13.47;;;6.50;67.50;;;;;;5054491;28;20723;-70
2023/04/02 08:01:46;;;;;;;26.53;15.00;;;6.40;67.40;;;;;;5053654;28;20384;-71
2023/04/02 08:04:21;;;;;;;21.15;14.15;;;6.30;64.90;;;;;;5053978;28;20382;-72
2023/04/02 08:06:48;;;;;;;24.02;12.88;;;6.40;67.80;;;;;;5053829;28;20401;-69
2023/04/02 08:09:15;;;;;;;22.55;12.90;;;6.40;66.20;;;;;;5053851;28;20385;-70
2023/04/02 08:11:41;;;;;;;18.50;12.15;;;6.40;65.30;;;;;;5053558;28;20393;-71
2023/04/02 08:14:07;;;;;;;19.60;12.68;;;6.30;66.10;;;;;;5053602;28;20462;-71
2023/04/02 08:16:51;;;;;;;26.25;13.75;;;6.40;66.70;;;;;;5053723;28;20392;-71
2023/04/02 08:19:17;;;;;;;18.38;11.50;;;6.60;65.10;;;;;;5053798;28;20393;-70
2023/04/02 08:21:43;;;;;;;15.60;10.40;;;6.60;62.90;;;;;;5054707;28;20392;-72
2023/04/02 08:24:09;;;;;;;18.53;10.37;;;6.70;64.00;;;;;;5069232;28;20393;-72
2023/04/02 08:26:35;;;;;;;16.07;9.70;;;6.90;60.90;;;;;;5073702;28;20765;-72
2023/04/02 08:29:01;;;;;;;16.05;10.23;;;6.90;57.90;;;;;;5069331;28;20469;-72
2023/04/02 08:31:26;;;;;;;15.50;9.00;;;7.00;59.90;;;;;;5052201;28;20424;-71
2023/04/02 08:33:52;;;;;;;12.67;9.90;;;7.10;56.70;;;;;;5053057;28;20481;-71
2023/04/02 08:36:23;;;;;;;12.82;9.68;;;7.10;58.30;;;;;;5053375;28;20389;-71
2023/04/02 08:38:50;;;;;;;15.90;9.25;;;7.20;55.90;;;;;;5052919;28;20882;-70
2023/04/02 08:41:27;;;;;;;11.77;8.38;;;7.30;54.80;;;;;;5052884;28;20396;-70
2023/04/02 08:44:28;;;;;;;11.35;9.00;;;7.20;53.40;;;;;;5053130;28;20870;-70
2023/04/02 08:47:00;;;;;;;14.10;8.93;;;7.40;54.20;;;;;;5010401;28;20408;-71
2023/04/02 08:49:34;;;;;;;10.13;7.97;;;7.60;51.10;;;;;;5045960;28;20401;-71
2023/04/02 08:52:00;;;;;;;11.13;8.05;;;7.70;49.30;;;;;;5052541;28;20387;-70
2023/04/02 08:54:29;;;;;;;11.10;7.67;;;7.70;51.20;;;;;;5051715;28;20568;-72
2023/04/02 08:57:27;;;;;;;11.45;7.80;;;8.00;52.00;;;;;;5052628;28;20443;-72
2023/04/02 09:00:09;;;;;;;7.70;6.90;;;8.20;45.90;;;;;;5049993;28;20434;-71
2023/04/02 09:02:40;;;;;;;10.82;7.03;;;7.90;43.60;;;;;;5052164;28;20385;-72
2023/04/02 09:05:14;;;;;;;12.82;7.53;;;7.70;49.50;;;;;;5052822;28;20430;-71
2023/04/02 09:07:40;;;;;;;7.80;6.20;;;7.60;47.40;;;;;;5052197;28;20445;-69
2023/04/02 09:10:14;;;;;;;10.18;7.72;;;7.30;46.50;;;;;;5052455;28;20381;-71
2023/04/02 09:12:45;;;;;;;9.93;7.03;;;7.40;47.40;;;;;;5051349;28;21270;-71
2023/04/02 09:15:23;;;;;;;12.53;7.13;;;7.30;47.30;;;;;;5050719;28;20396;-71
2023/04/02 09:18:15;;;;;;;11.40;7.32;;;7.60;47.40;;;;;;5051988;28;20373;-71
2023/04/02 09:20:41;;;;;;;9.57;6.97;;;7.80;46.00;;;;;;5067896;22;20452;-76
2023/04/02 09:23:18;;;;;;;9.33;6.50;;;8.00;44.40;;;;;;5053719;28;20378;-77
2023/04/02 09:25:48;;;;;;;8.70;5.70;;;8.20;43.50;;;;;;5054640;28;20365;-76
2023/04/02 09:28:14;;;;;;;10.10;6.20;;;8.10;39.70;;;;;;5055503;28;20381;-75
2023/04/02 09:31:13;;;;;;;7.43;5.83;;;8.40;42.20;;;;;;5055912;28;20944;-76
2023/04/02 09:33:41;;;;;;;7.28;5.32;;;8.50;38.80;;;;;;5062932;28;20389;-75
2023/04/02 09:36:25;;;;;;;9.23;5.25;;;8.30;39.00;;;;;;5057554;28;20412;-76
2023/04/02 09:39:18;;;;;;;6.15;4.72;;;8.30;39.10;;;;;;5061788;28;20397;-76
2023/04/02 09:41:45;;;;;;;6.70;4.90;;;8.50;39.80;;;;;;5062079;28;20401;-75
2023/04/02 09:44:31;;;;;;;8.43;5.57;;;8.70;38.20;;;;;;5052537;28;20415;-76
2023/04/02 09:47:05;;;;;;;8.40;5.53;;;8.80;36.70;;;;;;5051533;28;20402;-76
2023/04/02 09:49:36;;;;;;;7.40;5.20;;;8.90;35.70;;;;;;5050784;28;20393;-76
2023/04/02 09:52:14;;;;;;;7.30;4.82;;;9.00;39.90;;;;;;5054365;28;20388;-76
2023/04/02 09:54:43;;;;;;;7.22;4.90;;;9.30;34.80;;;;;;5052178;28;20377;-76
2023/04/02 09:57:23;;;;;;;7.15;4.80;;;9.60;34.10;;;;;;5051841;28;20385;-76
2023/04/02 10:00:15;;;;;;;7.05;4.75;;;9.50;32.20;;;;;;5053452;28;20385;-75
2023/04/02 10:02:42;;;;;;;10.07;4.40;;;9.40;34.60;;;;;;5052399;28;20993;-76
2023/04/02 10:05:20;;;;;;;9.32;4.70;;;9.40;32.80;;;;;;5052422;28;20412;-76
2023/04/02 10:07:52;;;;;;;6.23;4.43;;;9.40;32.40;;;;;;5051749;28;20496;-75
2023/04/02 10:10:27;;;;;;;7.35;4.78;;;9.30;33.20;;;;;;5052324;28;20385;-76
2023/04/02 10:13:00;;;;;;;5.65;4.00;;;9.50;33.50;;;;;;5052768;28;20381;-76
2023/04/02 10:15:41;;;;;;;11.48;4.05;;;9.70;31.80;;;;;;5053758;28;20935;-76
2023/04/02 10:18:36;;;;;;;7.68;4.60;;;10.00;31.60;;;;;;5056991;28;20378;-77
2023/04/02 10:21:04;;;;;;;5.47;4.40;;;9.80;30.60;;;;;;5071441;28;20393;-75
2023/04/02 10:23:30;;;;;;;7.00;3.80;;;9.70;32.10;;;;;;5055173;28;20389;-77
2023/04/02 10:26:12;;;;;;;6.07;4.10;;;10.00;34.30;;;;;;5052034;28;20799;-77
2023/04/02 10:28:44;;;;;;;7.72;4.00;;;10.30;32.10;;;;;;5051428;28;20413;-76
2023/04/02 10:31:40;;;;;;;7.27;4.13;;;10.40;29.20;;;;;;5051589;28;20738;-76
2023/04/02 10:34:18;;;;;;;6.50;3.60;;;10.50;29.40;;;;;;5035475;28;20410;-76
2023/04/02 10:36:58;;;;;;;6.78;3.80;;;10.80;27.60;;;;;;5049930;28;20443;-76
2023/04/02 10:39:35;;;;;;;6.82;3.67;;;10.40;27.60;;;;;;5051698;28;20450;-76
2023/04/02 10:42:30;;;;;;;7.88;3.85;;;9.60;30.10;;;;;;5051147;28;20750;-76
2023/04/02 10:45:20;;;;;;;5.63;4.47;;;9.60;32.50;;;;;;5051752;28;20484;-74
2023/04/02 10:48:03;;;;;;;5.85;4.05;;;9.80;31.50;;;;;;5050137;28;20447;-75
2023/04/02 10:50:53;;;;;;;8.82;4.13;;;9.60;30.60;;;;;;5051533;28;20389;-75
2023/04/02 10:53:25;;;;;;;7.18;4.93;;;9.30;30.80;;;;;;5051663;28;20885;-76
2023/04/02 10:55:55;;;;;;;11.77;5.00;;;9.20;34.50;;;;;;5053399;28;20374;-76
2023/04/02 10:58:27;;;;;;;4.70;3.83;;;9.30;32.10;;;;;;5051817;28;20952;-75
2023/04/02 11:01:12;;;;;;;9.10;4.18;;;9.00;32.30;;;;;;5050717;28;20401;-76
2023/04/02 11:03:48;;;;;;;3.92;3.28;;;9.50;33.70;;;;;;5051313;28;20881;-76
2023/04/02 11:06:44;;;;;;;5.95;3.47;;;9.80;31.60;;;;;;5052041;28;20455;-75
2023/04/02 11:09:17;;;;;;;6.35;3.80;;;10.00;30.70;;;;;;5051628;28;20394;-77
2023/04/02 11:11:47;;;;;;;9.80;3.67;;;10.10;29.30;;;;;;5049880;28;20393;-75
2023/04/02 11:14:29;;;;;;;8.15;4.65;;;10.00;28.70;;;;;;5052010;28;20878;-76
2023/04/02 11:17:01;;;;;;;10.32;5.00;;;9.80;28.90;;;;;;5053093;28;20745;-76
2023/04/02 11:19:33;;;;;;;6.45;4.18;;;9.50;31.00;;;;;;5057687;28;20421;-76
2023/04/02 11:22:01;;;;;;;6.72;3.70;;;9.40;29.50;;;;;;5057039;28;20573;-76
2023/04/02 11:24:35;;;;;;;9.35;3.88;;;9.40;30.40;;;;;;5059514;28;20692;-75
2023/04/02 11:27:10;;;;;;;5.40;3.50;;;9.60;31.00;;;;;;5062587;28;20427;-76
2023/04/02 11:29:41;;;;;;;9.05;4.40;;;9.70;30.10;;;;;;5063486;28;20397;-76
2023/04/02 11:32:30;;;;;;;10.57;4.47;;;10.00;29.80;;;;;;5063636;28;20495;-75
2023/04/02 11:34:57;;;;;;;5.82;3.80;;;10.40;30.10;;;;;;5061852;28;20381;-75
2023/04/02 11:37:42;;;;;;;5.90;4.13;;;10.60;27.20;;;;;;5058616;28;20388;-76
2023/04/02 11:40:11;;;;;;;5.55;3.92;;;10.70;26.20;;;;;;5056496;28;20385;-75
2023/04/02 11:42:39;;;;;;;4.60;3.50;;;10.80;27.50;;;;;;5056240;28;20409;-76
2023/04/02 11:45:25;;;;;;;6.68;3.53;;;10.90;25.70;;;;;;5057283;28;20734;-76
2023/04/02 11:48:00;;;;;;;6.45;3.67;;;10.60;26.00;;;;;;5048145;28;20931;-76
2023/04/02 11:50:34;;;;;;;4.88;3.35;;;10.40;25.20;;;;;;5058444;28;20563;-76
2023/04/02 11:53:09;;;;;;;6.70;3.75;;;10.40;26.40;;;;;;5055851;28;20468;-77
2023/04/02 11:55:36;;;;;;;3.70;3.40;;;10.60;26.00;;;;;;5055946;28;20878;-76
2023/04/02 11:58:25;;;;;;;6.30;4.00;;;10.90;26.70;;;;;;5053501;28;20385;-76
2023/04/02 12:01:15;;;;;;;5.40;3.72;;;11.10;26.00;;;;;;5053834;28;20893;-77
2023/04/02 12:03:52;;;;;;;5.30;3.22;;;11.00;22.30;;;;;;5054635;28;20438;-77
2023/04/02 12:06:33;;;;;;;9.80;3.40;;;11.10;23.90;;;;;;5055588;28;20401;-77
2023/04/02 12:09:21;;;;;;;6.77;3.40;;;11.20;23.20;;;;;;5054788;28;20394;-76
2023/04/02 12:11:47;;;;;;;6.70;3.70;;;11.00;23.50;;;;;;5054603;28;20377;-76
2023/04/02 12:14:30;;;;;;;5.85;3.42;;;11.10;23.20;;;;;;5058465;28;20393;-77
2023/04/02 12:16:56;;;;;;;6.18;3.65;;;11.10;24.00;;;;;;5055981;28;20382;-76
2023/04/02 12:19:23;;;;;;;5.72;3.60;;;11.00;22.90;;;;;;5055528;28;20393;-76
2023/04/02 12:21:51;;;;;;;4.45;3.47;;;11.00;22.40;;;;;;5054859;28;20401;-77
2023/04/02 12:24:23;;;;;;;5.05;3.20;;;10.90;22.40;;;;;;5057292;28;20386;-77
2023/04/02 12:27:14;;;;;;;6.05;4.30;;;10.80;22.50;;;;;;5058806;28;20427;-76
2023/04/02 12:29:40;;;;;;;8.23;4.07;;;10.50;22.70;;;;;;5063503;28;20442;-76
2023/04/02 12:32:22;;;;;;;4.55;3.40;;;10.30;23.40;;;;;;5061327;28;20374;-76
2023/04/02 12:34:48;;;;;;;6.57;3.58;;;10.50;23.60;;;;;;5065608;28;20370;-77
2023/04/02 12:37:22;;;;;;;5.75;3.42;;;10.90;23.20;;;;;;5067268;28;20393;-76
2023/04/02 12:39:53;;;;;;;7.65;3.65;;;10.50;24.30;;;;;;5063010;28;20439;-76
2023/04/02 12:42:26;;;;;;;10.18;4.68;;;10.70;23.70;;;;;;5054736;28;20417;-75
2023/04/02 12:44:52;;;;;;;8.02;3.60;;;11.00;24.00;;;;;;5056876;28;20389;-76
2023/04/02 12:47:18;;;;;;;5.55;3.75;;;11.20;22.30;;;;;;5054785;28;20477;-76
2023/04/02 12:49:44;;;;;;;5.78;3.88;;;11.20;22.50;;;;;;5057217;28;20416;-76
2023/04/02 12:52:16;;;;;;;5.45;3.75;;;10.90;21.40;;;;;;5068970;28;20381;-77
2023/04/02 12:54:48;;;;;;;8.02;3.78;;;10.70;23.10;;;;;;5057878;28;20896;-76
2023/04/02 12:57:25;;;;;;;3.90;3.38;;;10.50;22.70;;;;;;5054592;28;20828;-77
2023/04/02 12:59:56;;;;;;;7.50;3.90;;;10.10;23.50;;;;;;5059622;28;20378;-76
2023/04/02 13:02:23;;;;;;;5.15;3.50;;;10.00;24.80;;;;;;5060357;28;20381;-77
2023/04/02 13:04:54;;;;;;;6.22;3.17;;;10.00;25.80;;;;;;5060525;28;20385;-76
2023/04/02 13:07:25;;;;;;;5.65;3.30;;;10.40;24.40;;;;;;5060250;28;20404;-76
2023/04/02 13:09:53;;;;;;;5.00;3.00;;;10.10;25.40;;;;;;5058936;28;20389;-76
2023/04/02 13:12:32;;;;;;;4.75;3.20;;;10.00;25.90;;;;;;5054441;28;20924;-76
2023/04/02 13:15:01;;;;;;;5.18;3.10;;;10.00;28.10;;;;;;5053241;28;20382;-76
2023/04/02 13:17:37;;;;;;;4.53;3.00;;;10.10;28.20;;;;;;5053527;28;20393;-76
2023/04/02 13:20:27;;;;;;;6.07;3.10;;;10.20;26.40;;;;;;5052845;28;20401;-75
2023/04/02 13:22:53;;;;;;;4.72;3.08;;;9.90;25.50;;;;;;5051317;28;20381;-76
2023/04/02 13:25:27;;;;;;;6.47;3.15;;;10.00;25.70;;;;;;5052563;28;20389;-77
2023/04/02 13:27:53;;;;;;;4.00;3.30;;;10.00;26.00;;;;;;5052490;28;20963;-76